createdAt,value
2017-08-08T00:00:31.003Z,0
2017-08-08T00:01:30.760Z,0
2017-08-08T00:02:31.054Z,0
2017-08-08T00:03:31.153Z,0
2017-08-08T00:04:31.158Z,0
2017-08-08T00:05:31.184Z,0
2017-08-08T00:06:31.199Z,0
2017-08-08T00:07:31.262Z,0
2017-08-08T00:08:31.003Z,0
2017-08-08T00:09:30.989Z,0
2017-08-08T00:10:31.057Z,0
2017-08-08T00:11:31.384Z,0
2017-08-08T00:12:30.835Z,0
2017-08-08T00:13:31.797Z,0
2017-08-08T00:14:31.854Z,0
2017-08-08T00:15:31.245Z,0
2017-08-08T00:16:32.191Z,0
2017-08-08T00:17:32.246Z,0
2017-08-08T00:18:32.289Z,0
2017-08-08T00:19:32.292Z,0
2017-08-08T00:20:32.329Z,0
2017-08-08T00:21:32.096Z,0
2017-08-08T00:22:32.408Z,0
2017-08-08T00:23:32.438Z,0
2017-08-08T00:24:32.494Z,0
2017-08-08T00:25:32.504Z,0
2017-08-08T00:26:32.240Z,0
2017-08-08T00:27:32.863Z,0
2017-08-08T00:28:32.932Z,0
2017-08-08T00:29:32.589Z,0
2017-08-08T00:30:32.938Z,0
2017-08-08T00:31:33.292Z,0
2017-08-08T00:32:33.878Z,0
2017-08-08T00:33:33.676Z,0
2017-08-08T00:34:34.007Z,0
2017-08-08T00:35:34.036Z,0
2017-08-08T00:36:33.732Z,0
2017-08-08T00:37:34.096Z,0
2017-08-08T00:38:34.154Z,0
2017-08-08T00:39:34.475Z,0
2017-08-08T00:40:34.511Z,0
2017-08-08T00:41:34.554Z,0
2017-08-08T00:42:34.583Z,0
2017-08-08T00:43:34.299Z,0
2017-08-08T00:44:34.349Z,0
2017-08-08T00:45:34.344Z,0
2017-08-08T00:46:34.710Z,0
2017-08-08T00:47:34.788Z,0
2017-08-08T00:48:34.499Z,0
2017-08-08T00:49:34.841Z,0
2017-08-08T00:50:34.553Z,0
2017-08-08T00:51:34.933Z,0
2017-08-08T00:52:34.610Z,0
2017-08-08T00:53:34.973Z,0
2017-08-08T00:54:34.997Z,0
2017-08-08T00:55:35.008Z,0
2017-08-08T00:56:35.067Z,0
2017-08-08T00:57:34.778Z,0
2017-08-08T00:58:35.452Z,0
2017-08-08T00:59:35.180Z,0
2017-08-08T01:00:35.846Z,0
2017-08-08T01:01:35.616Z,0
2017-08-08T01:02:35.913Z,0
2017-08-08T01:03:35.947Z,0
2017-08-08T01:04:35.987Z,0
2017-08-08T01:05:35.682Z,0
2017-08-08T01:06:36.339Z,0
2017-08-08T01:07:36.375Z,0
2017-08-08T01:08:36.103Z,0
2017-08-08T01:09:36.106Z,0
2017-08-08T01:10:36.203Z,0
2017-08-08T01:11:36.503Z,0
2017-08-08T01:12:36.535Z,0
2017-08-08T01:13:36.255Z,0
2017-08-08T01:14:36.634Z,0
2017-08-08T01:15:36.957Z,0
2017-08-08T01:16:36.362Z,0
2017-08-08T01:17:37.047Z,0
2017-08-08T01:18:37.375Z,0
2017-08-08T01:19:37.110Z,0
2017-08-08T01:20:37.446Z,0
2017-08-08T01:21:37.458Z,0
2017-08-08T01:22:37.509Z,0
2017-08-08T01:23:37.541Z,0
2017-08-08T01:24:37.551Z,0
2017-08-08T01:25:37.631Z,0
2017-08-08T01:26:37.640Z,0
2017-08-08T01:27:37.665Z,0
2017-08-08T01:28:37.401Z,0
2017-08-08T01:29:37.420Z,0
2017-08-08T01:30:37.774Z,0
2017-08-08T01:31:37.819Z,0
2017-08-08T01:32:37.222Z,0
2017-08-08T01:33:38.201Z,0
2017-08-08T01:34:37.350Z,0
2017-08-08T01:35:38.014Z,0
2017-08-08T01:36:38.083Z,0
2017-08-08T01:37:38.360Z,0
2017-08-08T01:38:38.165Z,0
2017-08-08T01:39:38.458Z,0
2017-08-08T01:40:38.513Z,0
2017-08-08T01:41:38.249Z,0
2017-08-08T01:42:38.269Z,0
2017-08-08T01:43:38.604Z,0
2017-08-08T01:44:38.014Z,0
2017-08-08T01:45:38.975Z,0
2017-08-08T01:46:39.005Z,0
2017-08-08T01:47:38.724Z,0
2017-08-08T01:48:38.465Z,0
2017-08-08T01:49:39.144Z,0
2017-08-08T01:50:40.341Z,0
2017-08-08T01:51:39.512Z,0
2017-08-08T01:52:39.532Z,0
2017-08-08T01:53:39.601Z,0
2017-08-08T01:54:39.612Z,0
2017-08-08T01:55:39.659Z,0
2017-08-08T01:56:39.689Z,0
2017-08-08T01:57:39.702Z,0
2017-08-08T01:58:39.739Z,0
2017-08-08T01:59:39.775Z,0
2017-08-08T02:00:39.779Z,0
2017-08-08T02:01:40.023Z,0
2017-08-08T02:02:39.238Z,0
2017-08-08T02:03:39.936Z,0
2017-08-08T02:04:39.970Z,0
2017-08-08T02:05:40.675Z,0
2017-08-08T02:06:40.681Z,0
2017-08-08T02:07:40.734Z,0
2017-08-08T02:08:40.808Z,0
2017-08-08T02:09:40.792Z,0
2017-08-08T02:10:40.831Z,0
2017-08-08T02:11:40.857Z,0
2017-08-08T02:12:41.186Z,0
2017-08-08T02:13:40.885Z,0
2017-08-08T02:14:41.511Z,0
2017-08-08T02:15:40.936Z,0
2017-08-08T02:16:41.878Z,0
2017-08-08T02:17:41.951Z,0
2017-08-08T02:18:41.653Z,0
2017-08-08T02:19:42.336Z,0
2017-08-08T02:20:42.404Z,0
2017-08-08T02:21:42.398Z,0
2017-08-08T02:22:41.818Z,0
2017-08-08T02:23:42.482Z,0
2017-08-08T02:24:42.513Z,0
2017-08-08T02:25:42.609Z,0
2017-08-08T02:26:42.882Z,0
2017-08-08T02:27:42.608Z,0
2017-08-08T02:28:42.954Z,0
2017-08-08T02:29:43.280Z,0
2017-08-08T02:30:43.674Z,0
2017-08-08T02:31:43.059Z,0
2017-08-08T02:32:43.412Z,0
2017-08-08T02:33:43.764Z,0
2017-08-08T02:34:43.780Z,0
2017-08-08T02:35:43.520Z,0
2017-08-08T02:36:43.565Z,0
2017-08-08T02:37:43.910Z,0
2017-08-08T02:38:43.938Z,0
2017-08-08T02:39:43.992Z,0
2017-08-08T02:40:43.681Z,0
2017-08-08T02:41:43.391Z,0
2017-08-08T02:42:44.078Z,0
2017-08-08T02:43:43.806Z,0
2017-08-08T02:44:43.819Z,0
2017-08-08T02:45:43.864Z,0
2017-08-08T02:46:44.480Z,0
2017-08-08T02:47:44.219Z,0
2017-08-08T02:48:44.276Z,0
2017-08-08T02:49:44.581Z,0
2017-08-08T02:50:44.975Z,0
2017-08-08T02:51:44.674Z,0
2017-08-08T02:52:45.011Z,0
2017-08-08T02:53:45.314Z,0
2017-08-08T02:54:44.768Z,0
2017-08-08T02:55:45.771Z,0
2017-08-08T02:56:45.471Z,0
2017-08-08T02:57:45.850Z,0
2017-08-08T02:58:46.503Z,0
2017-08-08T02:59:46.545Z,0
2017-08-08T03:00:46.273Z,0
2017-08-08T03:01:46.682Z,0
2017-08-08T03:02:46.670Z,0
2017-08-08T03:03:46.705Z,4
2017-08-08T03:04:46.713Z,4
2017-08-08T03:05:46.742Z,0
2017-08-08T03:06:46.762Z,0
2017-08-08T03:07:46.502Z,4
2017-08-08T03:08:46.870Z,4
2017-08-08T03:09:46.879Z,4
2017-08-08T03:10:46.896Z,4
2017-08-08T03:11:46.611Z,4
2017-08-08T03:12:46.953Z,8
2017-08-08T03:13:47.010Z,8
2017-08-08T03:14:47.018Z,12
2017-08-08T03:15:47.050Z,12
2017-08-08T03:16:47.081Z,12
2017-08-08T03:17:47.116Z,12
2017-08-08T03:18:47.156Z,12
2017-08-08T03:19:46.876Z,16
2017-08-08T03:20:46.902Z,20
2017-08-08T03:21:47.276Z,24
2017-08-08T03:22:46.692Z,24
2017-08-08T03:23:47.063Z,28
2017-08-08T03:24:47.673Z,32
2017-08-08T03:25:47.706Z,36
2017-08-08T03:26:47.737Z,40
2017-08-08T03:27:47.775Z,44
2017-08-08T03:28:47.800Z,48
2017-08-08T03:29:47.202Z,52
2017-08-08T03:30:47.647Z,60
2017-08-08T03:31:47.902Z,64
2017-08-08T03:32:47.943Z,72
2017-08-08T03:33:47.641Z,80
2017-08-08T03:34:48.002Z,84
2017-08-08T03:35:48.054Z,96
2017-08-08T03:36:47.789Z,104
2017-08-08T03:37:48.100Z,116
2017-08-08T03:38:48.164Z,124
2017-08-08T03:39:48.175Z,132
2017-08-08T03:40:47.871Z,144
2017-08-08T03:41:47.934Z,152
2017-08-08T03:42:47.968Z,160
2017-08-08T03:43:47.991Z,168
2017-08-08T03:44:48.333Z,180
2017-08-08T03:45:47.791Z,192
2017-08-08T03:46:48.404Z,204
2017-08-08T03:47:48.776Z,216
2017-08-08T03:48:48.478Z,228
2017-08-08T03:49:48.846Z,244
2017-08-08T03:50:48.894Z,260
2017-08-08T03:51:48.898Z,272
2017-08-08T03:52:48.938Z,296
2017-08-08T03:53:48.987Z,316
2017-08-08T03:54:49.023Z,344
2017-08-08T03:55:48.728Z,372
2017-08-08T03:56:49.077Z,400
2017-08-08T03:57:48.797Z,424
2017-08-08T03:58:48.845Z,448
2017-08-08T03:59:49.212Z,468
2017-08-08T04:00:49.323Z,488
2017-08-08T04:01:49.999Z,504
2017-08-08T04:02:49.712Z,524
2017-08-08T04:03:50.186Z,552
2017-08-08T04:04:50.217Z,584
2017-08-08T04:05:50.253Z,616
2017-08-08T04:06:50.270Z,648
2017-08-08T04:07:50.309Z,692
2017-08-08T04:08:50.347Z,748
2017-08-08T04:09:50.052Z,808
2017-08-08T04:10:50.421Z,864
2017-08-08T04:11:50.124Z,924
2017-08-08T04:12:50.468Z,980
2017-08-08T04:13:50.509Z,1028
2017-08-08T04:14:50.527Z,1072
2017-08-08T04:15:50.580Z,1116
2017-08-08T04:16:50.604Z,1160
2017-08-08T04:17:50.646Z,1196
2017-08-08T04:18:50.661Z,1232
2017-08-08T04:19:50.725Z,1256
2017-08-08T04:20:51.183Z,1280
2017-08-08T04:21:51.231Z,1296
2017-08-08T04:22:50.919Z,1304
2017-08-08T04:23:51.285Z,1308
2017-08-08T04:24:51.323Z,1320
2017-08-08T04:25:51.351Z,1332
2017-08-08T04:26:51.381Z,1352
2017-08-08T04:27:51.109Z,1368
2017-08-08T04:28:51.280Z,1388
2017-08-08T04:29:52.069Z,1416
2017-08-08T04:30:52.260Z,1436
2017-08-08T04:31:53.032Z,1460
2017-08-08T04:32:52.733Z,1476
2017-08-08T04:33:53.108Z,1496
2017-08-08T04:34:53.131Z,1516
2017-08-08T04:35:52.851Z,1532
2017-08-08T04:36:53.199Z,1552
2017-08-08T04:37:53.238Z,1560
2017-08-08T04:38:52.960Z,1572
2017-08-08T04:39:53.127Z,1572
2017-08-08T04:40:54.556Z,1584
2017-08-08T04:41:54.231Z,1608
2017-08-08T04:42:54.810Z,1640
2017-08-08T04:43:55.973Z,1676
2017-08-08T04:44:55.762Z,1740
2017-08-08T04:45:55.842Z,1788
2017-08-08T04:46:56.088Z,1832
2017-08-08T04:47:55.836Z,1896
2017-08-08T04:48:55.828Z,1968
2017-08-08T04:49:55.879Z,2068
2017-08-08T04:50:56.041Z,2180
2017-08-08T04:51:55.685Z,2304
2017-08-08T04:52:55.662Z,2468
2017-08-08T04:53:56.015Z,2620
2017-08-08T04:54:56.005Z,2736
2017-08-08T04:55:55.090Z,2848
2017-08-08T04:56:55.898Z,2968
2017-08-08T04:57:56.310Z,3064
2017-08-08T04:58:56.554Z,3136
2017-08-08T04:59:56.305Z,3216
2017-08-08T05:00:56.347Z,3300
2017-08-08T05:01:56.405Z,3364
2017-08-08T05:02:56.404Z,3432
2017-08-08T05:03:56.440Z,3528
2017-08-08T05:04:56.475Z,3580
2017-08-08T05:05:56.534Z,3600
2017-08-08T05:06:56.542Z,3596
2017-08-08T05:07:56.577Z,3584
2017-08-08T05:08:56.606Z,3544
2017-08-08T05:09:56.311Z,3520
2017-08-08T05:10:56.675Z,3464
2017-08-08T05:11:56.397Z,3392
2017-08-08T05:12:57.206Z,3304
2017-08-08T05:13:57.250Z,3228
2017-08-08T05:14:56.949Z,3144
2017-08-08T05:15:57.009Z,3040
2017-08-08T05:16:57.788Z,2968
2017-08-08T05:17:57.814Z,2940
2017-08-08T05:18:57.850Z,2948
2017-08-08T05:19:57.548Z,3036
2017-08-08T05:20:58.030Z,3144
2017-08-08T05:21:58.050Z,3232
2017-08-08T05:22:58.101Z,3340
2017-08-08T05:23:57.808Z,3524
2017-08-08T05:24:57.656Z,3552
2017-08-08T05:25:58.482Z,3800
2017-08-08T05:26:58.823Z,3720
2017-08-08T05:27:58.851Z,3984
2017-08-08T05:28:58.892Z,4324
2017-08-08T05:29:58.905Z,4676
2017-08-08T05:30:58.622Z,4588
2017-08-08T05:31:58.981Z,4600
2017-08-08T05:32:59.027Z,4800
2017-08-08T05:33:59.040Z,4720
2017-08-08T05:34:59.085Z,4960
2017-08-08T05:35:59.553Z,4748
2017-08-08T05:36:59.580Z,4596
2017-08-08T05:37:59.309Z,4664
2017-08-08T05:38:59.650Z,4908
2017-08-08T05:39:59.682Z,5208
2017-08-08T05:40:59.728Z,5456
2017-08-08T05:41:59.760Z,5476
2017-08-08T05:43:00.251Z,5544
2017-08-08T05:44:00.272Z,5484
2017-08-08T05:45:00.334Z,5932
2017-08-08T05:46:00.026Z,6752
2017-08-08T05:47:00.058Z,6480
2017-08-08T05:48:00.417Z,6776
2017-08-08T05:49:00.440Z,6660
2017-08-08T05:50:00.484Z,6436
2017-08-08T05:51:00.529Z,6356
2017-08-08T05:52:00.265Z,6568
2017-08-08T05:53:00.286Z,6612
2017-08-08T05:54:01.063Z,6392
2017-08-08T05:55:01.133Z,6188
2017-08-08T05:56:01.167Z,6264
2017-08-08T05:57:00.866Z,6192
2017-08-08T05:58:01.678Z,6116
2017-08-08T05:59:01.710Z,6076
2017-08-08T06:00:01.738Z,5972
2017-08-08T06:01:01.777Z,6060
2017-08-08T06:02:01.803Z,5612
2017-08-08T06:03:01.539Z,6428
2017-08-08T06:04:01.568Z,6196
2017-08-08T06:05:01.579Z,6136
2017-08-08T06:06:01.964Z,7448
2017-08-08T06:07:01.675Z,6968
2017-08-08T06:08:02.026Z,7596
2017-08-08T06:09:01.743Z,7840
2017-08-08T06:10:02.103Z,9052
2017-08-08T06:11:01.804Z,11744
2017-08-08T06:12:02.182Z,12968
2017-08-08T06:13:02.198Z,15648
2017-08-08T06:14:01.591Z,18624
2017-08-08T06:15:02.100Z,18080
2017-08-08T06:16:02.793Z,14240
2017-08-08T06:17:02.159Z,12776
2017-08-08T06:18:02.648Z,9952
2017-08-08T06:19:02.996Z,9536
2017-08-08T06:20:02.718Z,10128
2017-08-08T06:21:03.083Z,10664
2017-08-08T06:22:02.793Z,10516
2017-08-08T06:23:02.829Z,10464
2017-08-08T06:24:03.655Z,10056
2017-08-08T06:25:03.694Z,9884
2017-08-08T06:26:03.752Z,9868
2017-08-08T06:27:03.751Z,9928
2017-08-08T06:28:03.484Z,10244
2017-08-08T06:29:03.822Z,10764
2017-08-08T06:30:04.447Z,10820
2017-08-08T06:31:04.021Z,8148
2017-08-08T06:32:04.380Z,8328
2017-08-08T06:33:04.089Z,9648
2017-08-08T06:34:04.450Z,9872
2017-08-08T06:35:04.554Z,10636
2017-08-08T06:36:04.514Z,10384
2017-08-08T06:37:04.256Z,10284
2017-08-08T06:38:04.602Z,10384
2017-08-08T06:39:04.335Z,10336
2017-08-08T06:40:04.395Z,9696
2017-08-08T06:41:04.723Z,9984
2017-08-08T06:42:04.754Z,9856
2017-08-08T06:43:04.800Z,10120
2017-08-08T06:44:04.862Z,9616
2017-08-08T06:45:04.879Z,9400
2017-08-08T06:46:04.912Z,8740
2017-08-08T06:47:04.962Z,9076
2017-08-08T06:48:04.689Z,9060
2017-08-08T06:49:04.716Z,8784
2017-08-08T06:50:04.757Z,9468
2017-08-08T06:51:04.801Z,10020
2017-08-08T06:52:05.138Z,10580
2017-08-08T06:53:04.909Z,11216
2017-08-08T06:54:05.234Z,10604
2017-08-08T06:55:05.270Z,9996
2017-08-08T06:56:05.028Z,9172
2017-08-08T06:57:05.367Z,8908
2017-08-08T06:58:05.091Z,8996
2017-08-08T06:59:05.194Z,11036
2017-08-08T07:00:06.104Z,11048
2017-08-08T07:01:05.337Z,11040
2017-08-08T07:02:05.236Z,11268
2017-08-08T07:03:04.963Z,11348
2017-08-08T07:04:05.797Z,11404
2017-08-08T07:05:05.834Z,11628
2017-08-08T07:06:05.509Z,11588
2017-08-08T07:07:06.441Z,11276
2017-08-08T07:08:06.148Z,10688
2017-08-08T07:09:06.446Z,10636
2017-08-08T07:10:05.835Z,10916
2017-08-08T07:11:06.643Z,10552
2017-08-08T07:12:06.997Z,10412
2017-08-08T07:13:06.730Z,10212
2017-08-08T07:14:06.771Z,10160
2017-08-08T07:15:06.550Z,10272
2017-08-08T07:16:07.164Z,10172
2017-08-08T07:17:07.198Z,9984
2017-08-08T07:18:07.243Z,9788
2017-08-08T07:19:07.284Z,9832
2017-08-08T07:20:07.136Z,9840
2017-08-08T07:21:07.363Z,9820
2017-08-08T07:22:06.765Z,10040
2017-08-08T07:23:07.213Z,10284
2017-08-08T07:24:07.288Z,10144
2017-08-08T07:25:08.223Z,10412
2017-08-08T07:26:07.848Z,10532
2017-08-08T07:27:07.871Z,10540
2017-08-08T07:28:07.594Z,10872
2017-08-08T07:29:08.738Z,11316
2017-08-08T07:30:09.488Z,11656
2017-08-08T07:31:09.244Z,11872
2017-08-08T07:32:08.990Z,12204
2017-08-08T07:33:09.493Z,13236
2017-08-08T07:34:10.309Z,13528
2017-08-08T07:35:09.830Z,14688
2017-08-08T07:36:10.521Z,14848
2017-08-08T07:37:10.869Z,14688
2017-08-08T07:38:10.920Z,14112
2017-08-08T07:39:10.974Z,14304
2017-08-08T07:40:10.676Z,15072
2017-08-08T07:41:10.426Z,14816
2017-08-08T07:42:11.561Z,15776
2017-08-08T07:43:11.571Z,19552
2017-08-08T07:44:11.657Z,26016
2017-08-08T07:45:11.485Z,30464
2017-08-08T07:46:11.725Z,31648
2017-08-08T07:47:11.768Z,42400
2017-08-08T07:48:11.822Z,49248
2017-08-08T07:49:11.872Z,50272
2017-08-08T07:50:11.639Z,50848
2017-08-08T07:51:11.943Z,53888
2017-08-08T07:52:11.971Z,53056
2017-08-08T07:53:12.040Z,48416
2017-08-08T07:54:11.768Z,45952
2017-08-08T07:55:12.341Z,48608
2017-08-08T07:56:12.692Z,49856
2017-08-08T07:57:12.070Z,51104
2017-08-08T07:58:12.219Z,49536
2017-08-08T07:59:12.720Z,46816
2017-08-08T08:00:13.120Z,48512
2017-08-08T08:01:13.252Z,36672
2017-08-08T08:02:13.316Z,36992
2017-08-08T08:03:13.346Z,42304
2017-08-08T08:04:13.381Z,43104
2017-08-08T08:05:13.802Z,41088
2017-08-08T08:06:13.773Z,42784
2017-08-08T08:07:13.825Z,41728
2017-08-08T08:08:13.868Z,40960
2017-08-08T08:09:13.914Z,32640
2017-08-08T08:10:13.632Z,32768
2017-08-08T08:11:14.000Z,33184
2017-08-08T08:12:14.042Z,26432
2017-08-08T08:13:14.082Z,23648
2017-08-08T08:14:14.118Z,31040
2017-08-08T08:15:14.177Z,30656
2017-08-08T08:16:13.903Z,32864
2017-08-08T08:17:14.705Z,32704
2017-08-08T08:18:14.757Z,29280
2017-08-08T08:19:14.801Z,26208
2017-08-08T08:20:14.508Z,26176
2017-08-08T08:21:14.875Z,24800
2017-08-08T08:22:14.612Z,24320
2017-08-08T08:23:14.634Z,24000
2017-08-08T08:24:14.675Z,26560
2017-08-08T08:25:15.249Z,27552
2017-08-08T08:26:15.096Z,28192
2017-08-08T08:27:14.486Z,30208
2017-08-08T08:28:15.609Z,31744
2017-08-08T08:29:15.326Z,32384
2017-08-08T08:30:15.376Z,32576
2017-08-08T08:31:15.749Z,33632
2017-08-08T08:32:15.829Z,32640
2017-08-08T08:33:15.830Z,29664
2017-08-08T08:34:15.567Z,30624
2017-08-08T08:35:15.612Z,32704
2017-08-08T08:36:15.957Z,30880
2017-08-08T08:37:15.997Z,28064
2017-08-08T08:38:16.045Z,25248
2017-08-08T08:39:16.084Z,26464
2017-08-08T08:40:15.820Z,26784
2017-08-08T08:41:16.173Z,27488
2017-08-08T08:42:15.911Z,26976
2017-08-08T08:43:16.262Z,25696
2017-08-08T08:44:16.309Z,22624
2017-08-08T08:45:16.351Z,18176
2017-08-08T08:46:16.092Z,18176
2017-08-08T08:47:16.582Z,17952
2017-08-08T08:48:16.954Z,17536
2017-08-08T08:49:16.985Z,16736
2017-08-08T08:50:17.025Z,16704
2017-08-08T08:51:17.074Z,16064
2017-08-08T08:52:16.816Z,16288
2017-08-08T08:53:16.983Z,16128
2017-08-08T08:54:17.056Z,15168
2017-08-08T08:55:17.410Z,12920
2017-08-08T08:56:17.429Z,10540
2017-08-08T08:57:17.469Z,11956
2017-08-08T08:58:16.879Z,15904
2017-08-08T08:59:17.684Z,16000
2017-08-08T09:00:17.722Z,17152
2017-08-08T09:01:17.500Z,16320
2017-08-08T09:02:18.289Z,16672
2017-08-08T09:03:17.678Z,16256
2017-08-08T09:04:18.818Z,16128
2017-08-08T09:05:18.871Z,16864
2017-08-08T09:06:18.580Z,15744
2017-08-08T09:07:18.945Z,15936
2017-08-08T09:08:18.663Z,13344
2017-08-08T09:09:18.725Z,15424
2017-08-08T09:10:18.764Z,16672
2017-08-08T09:11:18.499Z,15712
2017-08-08T09:12:18.672Z,16224
2017-08-08T09:13:19.486Z,15680
2017-08-08T09:14:19.525Z,15168
2017-08-08T09:15:19.254Z,15136
2017-08-08T09:16:19.271Z,15136
2017-08-08T09:17:19.028Z,15168
2017-08-08T09:18:19.850Z,15392
2017-08-08T09:19:19.578Z,15360
2017-08-08T09:20:19.937Z,15072
2017-08-08T09:21:19.338Z,15392
2017-08-08T09:22:20.137Z,15328
2017-08-08T09:23:20.191Z,15520
2017-08-08T09:24:20.670Z,15552
2017-08-08T09:25:20.718Z,15712
2017-08-08T09:26:20.132Z,15488
2017-08-08T09:27:21.283Z,15136
2017-08-08T09:28:21.329Z,15584
2017-08-08T09:29:21.370Z,15680
2017-08-08T09:30:21.410Z,15744
2017-08-08T09:31:21.134Z,15040
2017-08-08T09:32:21.642Z,15072
2017-08-08T09:33:22.023Z,15552
2017-08-08T09:34:22.064Z,15488
2017-08-08T09:35:22.105Z,14208
2017-08-08T09:36:21.832Z,13252
2017-08-08T09:37:22.209Z,15936
2017-08-08T09:38:22.260Z,14528
2017-08-08T09:39:22.278Z,14848
2017-08-08T09:40:22.334Z,15552
2017-08-08T09:41:22.376Z,15200
2017-08-08T09:42:22.118Z,15168
2017-08-08T09:43:21.834Z,15424
2017-08-08T09:44:22.971Z,14336
2017-08-08T09:45:23.480Z,15424
2017-08-08T09:46:23.501Z,15776
2017-08-08T09:47:23.241Z,15616
2017-08-08T09:48:23.587Z,16288
2017-08-08T09:49:23.320Z,15872
2017-08-08T09:50:23.920Z,15456
2017-08-08T09:51:24.741Z,15936
2017-08-08T09:52:24.778Z,16608
2017-08-08T09:53:24.520Z,16256
2017-08-08T09:54:24.861Z,16256
2017-08-08T09:55:24.706Z,16224
2017-08-08T09:56:24.960Z,16352
2017-08-08T09:57:25.021Z,16352
2017-08-08T09:58:24.737Z,16640
2017-08-08T09:59:24.744Z,16896
2017-08-08T10:00:24.833Z,17600
2017-08-08T10:01:24.878Z,17984
2017-08-08T10:02:24.598Z,18432
2017-08-08T10:03:25.418Z,18752
2017-08-08T10:04:25.445Z,18272
2017-08-08T10:05:25.966Z,17952
2017-08-08T10:06:25.977Z,18976
2017-08-08T10:07:26.459Z,19552
2017-08-08T10:08:26.515Z,19456
2017-08-08T10:09:26.543Z,19712
2017-08-08T10:10:26.272Z,19808
2017-08-08T10:11:27.404Z,20000
2017-08-08T10:12:27.141Z,20416
2017-08-08T10:13:27.931Z,20544
2017-08-08T10:14:27.982Z,22688
2017-08-08T10:15:27.707Z,24032
2017-08-08T10:16:27.748Z,25024
2017-08-08T10:17:27.895Z,27392
2017-08-08T10:18:28.693Z,29504
2017-08-08T10:19:28.730Z,31872
2017-08-08T10:20:28.449Z,31360
2017-08-08T10:21:28.505Z,33184
2017-08-08T10:22:28.548Z,36800
2017-08-08T10:23:29.357Z,40192
2017-08-08T10:24:29.438Z,39328
2017-08-08T10:25:29.465Z,41568
2017-08-08T10:26:29.499Z,43904
2017-08-08T10:27:28.887Z,46240
2017-08-08T10:28:29.581Z,46752
2017-08-08T10:29:29.629Z,45728
2017-08-08T10:30:29.360Z,42688
2017-08-08T10:31:29.507Z,41568
2017-08-08T10:32:30.634Z,42912
2017-08-08T10:33:31.125Z,47968
2017-08-08T10:34:31.153Z,52128
2017-08-08T10:35:31.197Z,55840
2017-08-08T10:36:31.242Z,54848
2017-08-08T10:37:31.293Z,53376
2017-08-08T10:38:30.693Z,44992
2017-08-08T10:39:31.819Z,48096
2017-08-08T10:40:31.881Z,47328
2017-08-08T10:41:31.895Z,40992
2017-08-08T10:42:31.945Z,32384
2017-08-08T10:43:31.993Z,32128
2017-08-08T10:44:31.704Z,36576
2017-08-08T10:45:31.744Z,36096
2017-08-08T10:46:32.535Z,36640
2017-08-08T10:47:32.580Z,29568
2017-08-08T10:48:32.621Z,31872
2017-08-08T10:49:32.658Z,30688
2017-08-08T10:50:32.705Z,29376
2017-08-08T10:51:32.742Z,24064
2017-08-08T10:52:32.143Z,25792
2017-08-08T10:53:33.023Z,16896
2017-08-08T10:54:33.031Z,13456
2017-08-08T10:55:32.726Z,12872
2017-08-08T10:56:33.071Z,13136
2017-08-08T10:57:33.142Z,12820
2017-08-08T10:58:33.163Z,12600
2017-08-08T10:59:32.883Z,12260
2017-08-08T11:00:33.249Z,11852
2017-08-08T11:01:33.291Z,11732
2017-08-08T11:02:33.330Z,12096
2017-08-08T11:03:33.045Z,12172
2017-08-08T11:04:33.541Z,12244
2017-08-08T11:05:33.248Z,11928
2017-08-08T11:06:33.602Z,12228
2017-08-08T11:07:33.643Z,12376
2017-08-08T11:08:33.694Z,12348
2017-08-08T11:09:33.740Z,12116
2017-08-08T11:10:33.778Z,11804
2017-08-08T11:11:33.498Z,11460
2017-08-08T11:12:33.851Z,11560
2017-08-08T11:13:33.892Z,11460
2017-08-08T11:14:33.306Z,11580
2017-08-08T11:15:34.121Z,11828
2017-08-08T11:16:34.605Z,11948
2017-08-08T11:17:34.329Z,11896
2017-08-08T11:18:34.352Z,11848
2017-08-08T11:19:35.150Z,11852
2017-08-08T11:20:35.330Z,11964
2017-08-08T11:21:35.383Z,12044
2017-08-08T11:22:35.855Z,12524
2017-08-08T11:23:35.241Z,12656
2017-08-08T11:24:36.045Z,12568
2017-08-08T11:25:36.055Z,12352
2017-08-08T11:26:35.785Z,12344
2017-08-08T11:27:36.158Z,12284
2017-08-08T11:28:35.858Z,12180
2017-08-08T11:29:36.224Z,12036
2017-08-08T11:30:36.402Z,11696
2017-08-08T11:31:36.446Z,11336
2017-08-08T11:32:36.490Z,11024
2017-08-08T11:33:36.504Z,10692
2017-08-08T11:34:36.621Z,10528
2017-08-08T11:35:36.899Z,10428
2017-08-08T11:36:36.643Z,10348
2017-08-08T11:37:36.358Z,10176
2017-08-08T11:38:36.714Z,10176
2017-08-08T11:39:36.749Z,10144
2017-08-08T11:40:36.481Z,10160
2017-08-08T11:41:36.836Z,10296
2017-08-08T11:42:36.559Z,10324
2017-08-08T11:43:36.902Z,10924
2017-08-08T11:44:36.949Z,11264
2017-08-08T11:45:36.671Z,11492
2017-08-08T11:46:37.173Z,11568
2017-08-08T11:47:37.515Z,11612
2017-08-08T11:48:37.554Z,11816
2017-08-08T11:49:37.598Z,12032
2017-08-08T11:50:37.332Z,12264
2017-08-08T11:51:37.042Z,11932
2017-08-08T11:52:37.889Z,11352
2017-08-08T11:53:38.715Z,11072
2017-08-08T11:54:38.750Z,10884
2017-08-08T11:55:38.793Z,10728
2017-08-08T11:56:38.829Z,10332
2017-08-08T11:57:38.865Z,9792
2017-08-08T11:58:38.595Z,9616
2017-08-08T11:59:38.944Z,9284
2017-08-08T12:00:38.651Z,9400
2017-08-08T12:01:39.044Z,8940
2017-08-08T12:02:39.081Z,9492
2017-08-08T12:03:39.101Z,8608
2017-08-08T12:04:38.831Z,8324
2017-08-08T12:05:39.177Z,7000
2017-08-08T12:06:38.590Z,6256
2017-08-08T12:07:39.711Z,6532
2017-08-08T12:08:39.749Z,6988
2017-08-08T12:09:39.795Z,7292
2017-08-08T12:10:43.753Z,7576
2017-08-08T12:11:39.333Z,7036
2017-08-08T12:12:39.587Z,7152
2017-08-08T12:13:40.022Z,8340
2017-08-08T12:14:40.095Z,8756
2017-08-08T12:15:39.833Z,8124
2017-08-08T12:16:40.308Z,8052
2017-08-08T12:17:40.034Z,8176
2017-08-08T12:18:40.079Z,7068
2017-08-08T12:19:40.104Z,6520
2017-08-08T12:20:40.557Z,6212
2017-08-08T12:21:40.925Z,6412
2017-08-08T12:22:40.638Z,6540
2017-08-08T12:23:41.141Z,7024
2017-08-08T12:24:41.298Z,7956
2017-08-08T12:25:41.277Z,7036
2017-08-08T12:26:41.575Z,6216
2017-08-08T12:27:41.356Z,5800
2017-08-08T12:28:41.342Z,5928
2017-08-08T12:29:41.506Z,6156
2017-08-08T12:30:41.851Z,7768
2017-08-08T12:31:41.935Z,7768
2017-08-08T12:32:41.932Z,6400
2017-08-08T12:33:41.969Z,5452
2017-08-08T12:34:42.020Z,4944
2017-08-08T12:35:42.068Z,5328
2017-08-08T12:36:41.464Z,5604
2017-08-08T12:37:42.247Z,6856
2017-08-08T12:38:41.975Z,6008
2017-08-08T12:39:42.005Z,5120
2017-08-08T12:40:41.723Z,5080
2017-08-08T12:41:42.244Z,5148
2017-08-08T12:42:42.742Z,5076
2017-08-08T12:43:43.118Z,4552
2017-08-08T12:44:42.821Z,4112
2017-08-08T12:45:43.176Z,4060
2017-08-08T12:46:42.905Z,4100
2017-08-08T12:47:42.621Z,4292
2017-08-08T12:48:43.110Z,4160
2017-08-08T12:49:43.179Z,3972
2017-08-08T12:50:43.516Z,3876
2017-08-08T12:51:43.555Z,4144
2017-08-08T12:52:43.274Z,4044
2017-08-08T12:53:43.617Z,4256
2017-08-08T12:54:43.678Z,4552
2017-08-08T12:55:43.371Z,4672
2017-08-08T12:56:43.768Z,4156
2017-08-08T12:57:43.802Z,3916
2017-08-08T12:58:43.510Z,3456
2017-08-08T12:59:44.323Z,3632
2017-08-08T13:00:44.048Z,3704
2017-08-08T13:01:43.766Z,3724
2017-08-08T13:02:44.245Z,3888
2017-08-08T13:03:44.760Z,3972
2017-08-08T13:04:44.457Z,3808
2017-08-08T13:05:45.267Z,3664
2017-08-08T13:06:45.301Z,3660
2017-08-08T13:07:44.823Z,4048
2017-08-08T13:08:44.870Z,4764
2017-08-08T13:09:45.532Z,5744
2017-08-08T13:10:45.598Z,4872
2017-08-08T13:11:45.940Z,4128
2017-08-08T13:12:45.975Z,3844
2017-08-08T13:13:45.709Z,3712
2017-08-08T13:14:46.207Z,3556
2017-08-08T13:15:45.915Z,3756
2017-08-08T13:16:46.280Z,3876
2017-08-08T13:17:46.315Z,3772
2017-08-08T13:18:46.369Z,3808
2017-08-08T13:19:46.399Z,4408
2017-08-08T13:20:46.460Z,3696
2017-08-08T13:21:46.483Z,2964
2017-08-08T13:22:46.518Z,2572
2017-08-08T13:23:46.559Z,2548
2017-08-08T13:24:46.273Z,2616
2017-08-08T13:25:46.313Z,2628
2017-08-08T13:26:46.683Z,2628
2017-08-08T13:27:46.714Z,2648
2017-08-08T13:28:46.753Z,2624
2017-08-08T13:29:46.789Z,2608
2017-08-08T13:30:46.499Z,2624